sensor_id;sensor_type;location;lat;lon;timestamp;P1;durP1;ratioP1;P2;durP2;ratioP2
62880;SDS011;48969;49.934;8.596;2023-04-15T00:01:37;8.23;;;4.85;;
62880;SDS011;48969;49.934;8.596;2023-04-15T00:04:02;7.05;;;4.30;;
62880;SDS011;48969;49.934;8.596;2023-04-15T00:06:28;5.65;;;4.10;;
62880;SDS011;48969;49.934;8.596;2023-04-15T00:08:53;5.72;;;3.97;;
62880;SDS011;48969;49.934;8.596;2023-04-15T00:11:19;6.97;;;4.07;;
62880;SDS011;48969;49.934;8.596;2023-04-15T00:13:44;3.10;;;1.42;;
62880;SDS011;48969;49.934;8.596;2023-04-15T00:16:10;6.80;;;3.90;;
62880;SDS011;48969;49.934;8.596;2023-04-15T00:18:35;6.65;;;4.00;;
62880;SDS011;48969;49.934;8.596;2023-04-15T00:21:01;1.40;;;1.30;;
62880;SDS011;48969;49.934;8.596;2023-04-15T00:23:27;7.45;;;4.30;;
62880;SDS011;48969;49.934;8.596;2023-04-15T00:25:52;5.97;;;3.97;;
62880;SDS011;48969;49.934;8.596;2023-04-15T00:28:17;8.50;;;4.60;;
62880;SDS011;48969;49.934;8.596;2023-04-15T00:30:43;6.88;;;4.57;;
62880;SDS011;48969;49.934;8.596;2023-04-15T00:33:08;7.63;;;5.00;;
62880;SDS011;48969;49.934;8.596;2023-04-15T00:35:34;6.05;;;4.50;;
62880;SDS011;48969;49.934;8.596;2023-04-15T00:38:00;8.02;;;4.75;;
62880;SDS011;48969;49.934;8.596;2023-04-15T00:40:25;7.90;;;4.68;;
62880;SDS011;48969;49.934;8.596;2023-04-15T00:42:51;6.55;;;4.00;;
62880;SDS011;48969;49.934;8.596;2023-04-15T00:45:17;6.65;;;4.25;;
62880;SDS011;48969;49.934;8.596;2023-04-15T00:47:43;6.75;;;4.20;;
62880;SDS011;48969;49.934;8.596;2023-04-15T00:50:09;7.40;;;4.53;;
62880;SDS011;48969;49.934;8.596;2023-04-15T00:52:34;7.30;;;4.80;;
62880;SDS011;48969;49.934;8.596;2023-04-15T00:55:00;3.63;;;2.63;;
62880;SDS011;48969;49.934;8.596;2023-04-15T00:57:26;6.95;;;4.53;;
62880;SDS011;48969;49.934;8.596;2023-04-15T00:59:52;3.25;;;1.02;;
62880;SDS011;48969;49.934;8.596;2023-04-15T01:02:18;9.60;;;5.40;;
62880;SDS011;48969;49.934;8.596;2023-04-15T01:04:43;0.65;;;0.63;;
62880;SDS011;48969;49.934;8.596;2023-04-15T01:07:08;2.20;;;1.38;;
62880;SDS011;48969;49.934;8.596;2023-04-15T01:09:34;1.38;;;1.27;;
62880;SDS011;48969;49.934;8.596;2023-04-15T01:11:59;7.90;;;5.80;;
62880;SDS011;48969;49.934;8.596;2023-04-15T01:14:24;0.70;;;0.52;;
62880;SDS011;48969;49.934;8.596;2023-04-15T01:16:49;1.25;;;0.85;;
62880;SDS011;48969;49.934;8.596;2023-04-15T01:19:16;0.95;;;0.95;;
62880;SDS011;48969;49.934;8.596;2023-04-15T01:21:41;1.75;;;1.33;;
62880;SDS011;48969;49.934;8.596;2023-04-15T01:24:10;1.45;;;1.30;;
62880;SDS011;48969;49.934;8.596;2023-04-15T01:26:38;0.68;;;0.68;;
62880;SDS011;48969;49.934;8.596;2023-04-15T01:29:04;0.50;;;0.50;;
62880;SDS011;48969;49.934;8.596;2023-04-15T01:31:29;0.80;;;0.77;;
62880;SDS011;48969;49.934;8.596;2023-04-15T01:33:54;2.45;;;1.13;;
62880;SDS011;48969;49.934;8.596;2023-04-15T01:36:19;1.65;;;1.23;;
62880;SDS011;48969;49.934;8.596;2023-04-15T01:38:45;0.68;;;0.58;;
62880;SDS011;48969;49.934;8.596;2023-04-15T01:41:10;0.47;;;0.47;;
62880;SDS011;48969;49.934;8.596;2023-04-15T01:43:35;1.27;;;1.17;;
62880;SDS011;48969;49.934;8.596;2023-04-15T01:46:01;1.85;;;1.73;;
62880;SDS011;48969;49.934;8.596;2023-04-15T01:48:27;1.27;;;0.95;;
62880;SDS011;48969;49.934;8.596;2023-04-15T01:50:53;0.95;;;0.95;;
62880;SDS011;48969;49.934;8.596;2023-04-15T01:53:18;3.30;;;1.67;;
62880;SDS011;48969;49.934;8.596;2023-04-15T01:55:43;2.17;;;1.98;;
62880;SDS011;48969;49.934;8.596;2023-04-15T01:58:09;3.60;;;1.88;;
62880;SDS011;48969;49.934;8.596;2023-04-15T02:00:34;1.40;;;1.30;;
62880;SDS011;48969;49.934;8.596;2023-04-15T02:03:00;0.47;;;0.40;;
62880;SDS011;48969;49.934;8.596;2023-04-15T02:05:25;2.25;;;2.05;;
62880;SDS011;48969;49.934;8.596;2023-04-15T02:07:50;1.60;;;1.50;;
62880;SDS011;48969;49.934;8.596;2023-04-15T02:10:15;2.35;;;1.23;;
62880;SDS011;48969;49.934;8.596;2023-04-15T02:12:41;2.50;;;1.90;;
62880;SDS011;48969;49.934;8.596;2023-04-15T02:15:06;1.13;;;1.13;;
62880;SDS011;48969;49.934;8.596;2023-04-15T02:17:35;1.75;;;1.65;;
62880;SDS011;48969;49.934;8.596;2023-04-15T02:20:01;2.03;;;1.83;;
62880;SDS011;48969;49.934;8.596;2023-04-15T02:22:26;2.47;;;2.28;;
62880;SDS011;48969;49.934;8.596;2023-04-15T02:24:53;1.60;;;1.50;;
62880;SDS011;48969;49.934;8.596;2023-04-15T02:27:18;3.55;;;2.17;;
62880;SDS011;48969;49.934;8.596;2023-04-15T02:29:44;1.17;;;1.15;;
62880;SDS011;48969;49.934;8.596;2023-04-15T02:32:10;0.57;;;0.57;;
62880;SDS011;48969;49.934;8.596;2023-04-15T02:34:35;1.95;;;1.48;;
62880;SDS011;48969;49.934;8.596;2023-04-15T02:37:03;2.50;;;1.65;;
62880;SDS011;48969;49.934;8.596;2023-04-15T02:39:28;2.10;;;1.92;;
62880;SDS011;48969;49.934;8.596;2023-04-15T02:41:53;0.85;;;0.85;;
62880;SDS011;48969;49.934;8.596;2023-04-15T02:44:19;7.13;;;2.80;;
62880;SDS011;48969;49.934;8.596;2023-04-15T02:46:44;2.45;;;1.65;;
62880;SDS011;48969;49.934;8.596;2023-04-15T02:49:12;10.52;;;8.75;;
62880;SDS011;48969;49.934;8.596;2023-04-15T02:51:38;1.73;;;1.60;;
62880;SDS011;48969;49.934;8.596;2023-04-15T02:54:03;10.25;;;2.45;;
62880;SDS011;48969;49.934;8.596;2023-04-15T02:56:29;1.50;;;1.40;;
62880;SDS011;48969;49.934;8.596;2023-04-15T02:58:54;1.75;;;1.50;;
62880;SDS011;48969;49.934;8.596;2023-04-15T03:01:20;2.25;;;1.98;;
62880;SDS011;48969;49.934;8.596;2023-04-15T03:03:45;2.22;;;1.55;;
62880;SDS011;48969;49.934;8.596;2023-04-15T03:06:11;0.75;;;0.75;;
62880;SDS011;48969;49.934;8.596;2023-04-15T03:08:36;0.80;;;0.80;;
62880;SDS011;48969;49.934;8.596;2023-04-15T03:11:01;0.94;;;0.82;;
62880;SDS011;48969;49.934;8.596;2023-04-15T03:13:26;3.47;;;2.20;;
62880;SDS011;48969;49.934;8.596;2023-04-15T03:15:51;3.92;;;1.95;;
62880;SDS011;48969;49.934;8.596;2023-04-15T03:18:17;2.25;;;2.05;;
62880;SDS011;48969;49.934;8.596;2023-04-15T03:20:42;3.42;;;2.13;;
62880;SDS011;48969;49.934;8.596;2023-04-15T03:23:07;2.72;;;1.88;;
62880;SDS011;48969;49.934;8.596;2023-04-15T03:25:32;3.78;;;1.82;;
62880;SDS011;48969;49.934;8.596;2023-04-15T03:27:58;2.63;;;2.42;;
62880;SDS011;48969;49.934;8.596;2023-04-15T03:30:23;7.53;;;3.17;;
62880;SDS011;48969;49.934;8.596;2023-04-15T03:32:48;3.42;;;2.00;;
62880;SDS011;48969;49.934;8.596;2023-04-15T03:35:14;3.75;;;2.70;;
62880;SDS011;48969;49.934;8.596;2023-04-15T03:37:39;9.88;;;6.90;;
62880;SDS011;48969;49.934;8.596;2023-04-15T03:40:05;9.93;;;7.13;;
62880;SDS011;48969;49.934;8.596;2023-04-15T03:42:31;2.78;;;2.58;;
62880;SDS011;48969;49.934;8.596;2023-04-15T03:44:56;1.88;;;1.13;;
62880;SDS011;48969;49.934;8.596;2023-04-15T03:47:21;10.73;;;6.95;;
62880;SDS011;48969;49.934;8.596;2023-04-15T03:49:46;2.13;;;1.88;;
62880;SDS011;48969;49.934;8.596;2023-04-15T03:52:12;3.35;;;2.40;;
62880;SDS011;48969;49.934;8.596;2023-04-15T03:54:37;3.55;;;2.35;;
62880;SDS011;48969;49.934;8.596;2023-04-15T03:57:02;3.95;;;1.88;;
62880;SDS011;48969;49.934;8.596;2023-04-15T03:59:27;3.08;;;2.46;;
62880;SDS011;48969;49.934;8.596;2023-04-15T04:01:52;7.70;;;6.40;;
62880;SDS011;48969;49.934;8.596;2023-04-15T04:04:17;7.22;;;6.47;;
62880;SDS011;48969;49.934;8.596;2023-04-15T04:06:42;2.05;;;1.85;;
62880;SDS011;48969;49.934;8.596;2023-04-15T04:09:08;10.10;;;6.63;;
62880;SDS011;48969;49.934;8.596;2023-04-15T04:11:33;2.70;;;1.90;;
62880;SDS011;48969;49.934;8.596;2023-04-15T04:13:58;8.75;;;6.55;;
62880;SDS011;48969;49.934;8.596;2023-04-15T04:16:23;1.92;;;1.73;;
62880;SDS011;48969;49.934;8.596;2023-04-15T04:18:48;2.42;;;1.75;;
62880;SDS011;48969;49.934;8.596;2023-04-15T04:21:13;6.90;;;6.10;;
62880;SDS011;48969;49.934;8.596;2023-04-15T04:23:38;0.85;;;0.85;;
62880;SDS011;48969;49.934;8.596;2023-04-15T04:26:04;9.40;;;6.72;;
62880;SDS011;48969;49.934;8.596;2023-04-15T04:28:29;1.63;;;1.52;;
62880;SDS011;48969;49.934;8.596;2023-04-15T04:30:54;1.25;;;0.85;;
62880;SDS011;48969;49.934;8.596;2023-04-15T04:33:19;1.85;;;1.27;;
62880;SDS011;48969;49.934;8.596;2023-04-15T04:35:45;2.03;;;1.55;;
62880;SDS011;48969;49.934;8.596;2023-04-15T04:38:10;3.15;;;2.45;;
62880;SDS011;48969;49.934;8.596;2023-04-15T04:40:35;4.25;;;2.28;;
62880;SDS011;48969;49.934;8.596;2023-04-15T04:43:00;5.95;;;2.05;;
62880;SDS011;48969;49.934;8.596;2023-04-15T04:45:26;1.92;;;1.77;;
62880;SDS011;48969;49.934;8.596;2023-04-15T04:47:51;0.88;;;0.75;;
62880;SDS011;48969;49.934;8.596;2023-04-15T04:50:16;1.30;;;1.20;;
62880;SDS011;48969;49.934;8.596;2023-04-15T04:52:41;7.80;;;6.50;;
62880;SDS011;48969;49.934;8.596;2023-04-15T04:55:06;0.57;;;0.57;;
62880;SDS011;48969;49.934;8.596;2023-04-15T04:57:32;0.30;;;0.30;;
62880;SDS011;48969;49.934;8.596;2023-04-15T04:59:58;2.50;;;1.83;;
62880;SDS011;48969;49.934;8.596;2023-04-15T05:02:23;4.26;;;1.84;;
62880;SDS011;48969;49.934;8.596;2023-04-15T05:04:50;1.42;;;1.33;;
62880;SDS011;48969;49.934;8.596;2023-04-15T05:07:18;1.55;;;1.15;;
62880;SDS011;48969;49.934;8.596;2023-04-15T05:09:44;1.08;;;0.75;;
62880;SDS011;48969;49.934;8.596;2023-04-15T05:12:10;0.93;;;0.75;;
62880;SDS011;48969;49.934;8.596;2023-04-15T05:14:38;1.38;;;1.27;;
62880;SDS011;48969;49.934;8.596;2023-04-15T05:17:04;0.88;;;0.85;;
62880;SDS011;48969;49.934;8.596;2023-04-15T05:19:29;0.63;;;0.63;;
62880;SDS011;48969;49.934;8.596;2023-04-15T05:21:54;1.15;;;1.15;;
62880;SDS011;48969;49.934;8.596;2023-04-15T05:24:20;0.75;;;0.75;;
62880;SDS011;48969;49.934;8.596;2023-04-15T05:26:45;2.67;;;1.55;;
62880;SDS011;48969;49.934;8.596;2023-04-15T05:29:10;1.63;;;1.52;;
62880;SDS011;48969;49.934;8.596;2023-04-15T05:31:36;1.45;;;1.33;;
62880;SDS011;48969;49.934;8.596;2023-04-15T05:34:01;3.47;;;2.60;;
62880;SDS011;48969;49.934;8.596;2023-04-15T05:36:27;3.17;;;2.28;;
62880;SDS011;48969;49.934;8.596;2023-04-15T05:38:52;9.32;;;7.50;;
62880;SDS011;48969;49.934;8.596;2023-04-15T05:41:18;1.77;;;1.50;;
62880;SDS011;48969;49.934;8.596;2023-04-15T05:43:43;2.60;;;2.15;;
62880;SDS011;48969;49.934;8.596;2023-04-15T05:46:08;2.08;;;1.83;;
62880;SDS011;48969;49.934;8.596;2023-04-15T05:48:33;8.38;;;6.78;;
62880;SDS011;48969;49.934;8.596;2023-04-15T05:50:59;8.90;;;6.88;;
62880;SDS011;48969;49.934;8.596;2023-04-15T05:53:24;7.80;;;6.50;;
62880;SDS011;48969;49.934;8.596;2023-04-15T05:55:49;2.65;;;2.08;;
62880;SDS011;48969;49.934;8.596;2023-04-15T05:58:15;7.88;;;6.95;;
62880;SDS011;48969;49.934;8.596;2023-04-15T06:00:40;3.47;;;2.40;;
62880;SDS011;48969;49.934;8.596;2023-04-15T06:03:05;9.55;;;7.18;;
62880;SDS011;48969;49.934;8.596;2023-04-15T06:05:31;1.83;;;1.67;;
62880;SDS011;48969;49.934;8.596;2023-04-15T06:07:57;9.20;;;6.82;;
62880;SDS011;48969;49.934;8.596;2023-04-15T06:10:22;8.55;;;6.47;;
62880;SDS011;48969;49.934;8.596;2023-04-15T06:12:47;7.57;;;6.53;;
62880;SDS011;48969;49.934;8.596;2023-04-15T06:15:12;7.38;;;6.40;;
62880;SDS011;48969;49.934;8.596;2023-04-15T06:17:37;8.85;;;7.00;;
62880;SDS011;48969;49.934;8.596;2023-04-15T06:20:03;11.05;;;7.65;;
62880;SDS011;48969;49.934;8.596;2023-04-15T06:22:28;2.47;;;2.25;;
62880;SDS011;48969;49.934;8.596;2023-04-15T06:24:53;7.90;;;7.13;;
62880;SDS011;48969;49.934;8.596;2023-04-15T06:27:18;2.22;;;2.03;;
62880;SDS011;48969;49.934;8.596;2023-04-15T06:29:44;8.93;;;7.55;;
62880;SDS011;48969;49.934;8.596;2023-04-15T06:32:09;9.07;;;7.63;;
62880;SDS011;48969;49.934;8.596;2023-04-15T06:34:34;3.25;;;2.28;;
62880;SDS011;48969;49.934;8.596;2023-04-15T06:36:59;8.57;;;7.68;;
62880;SDS011;48969;49.934;8.596;2023-04-15T06:39:25;4.68;;;2.92;;
62880;SDS011;48969;49.934;8.596;2023-04-15T06:41:51;4.20;;;3.55;;
62880;SDS011;48969;49.934;8.596;2023-04-15T06:44:16;10.30;;;8.15;;
62880;SDS011;48969;49.934;8.596;2023-04-15T06:46:42;13.30;;;8.73;;
62880;SDS011;48969;49.934;8.596;2023-04-15T06:49:07;4.80;;;3.47;;
62880;SDS011;48969;49.934;8.596;2023-04-15T06:51:33;16.98;;;11.18;;
62880;SDS011;48969;49.934;8.596;2023-04-15T06:53:58;11.23;;;9.07;;
62880;SDS011;48969;49.934;8.596;2023-04-15T06:56:24;14.75;;;10.13;;
62880;SDS011;48969;49.934;8.596;2023-04-15T06:58:49;10.10;;;8.68;;
62880;SDS011;48969;49.934;8.596;2023-04-15T07:01:14;10.55;;;9.45;;
62880;SDS011;48969;49.934;8.596;2023-04-15T07:03:39;12.10;;;9.02;;
62880;SDS011;48969;49.934;8.596;2023-04-15T07:06:05;11.40;;;9.50;;
62880;SDS011;48969;49.934;8.596;2023-04-15T07:08:32;11.57;;;9.02;;
62880;SDS011;48969;49.934;8.596;2023-04-15T07:10:58;7.53;;;4.88;;
62880;SDS011;48969;49.934;8.596;2023-04-15T07:13:23;11.13;;;9.13;;
62880;SDS011;48969;49.934;8.596;2023-04-15T07:15:48;12.13;;;9.60;;
62880;SDS011;48969;49.934;8.596;2023-04-15T07:18:14;11.63;;;9.27;;
62880;SDS011;48969;49.934;8.596;2023-04-15T07:20:39;10.55;;;8.93;;
62880;SDS011;48969;49.934;8.596;2023-04-15T07:23:04;9.90;;;8.90;;
62880;SDS011;48969;49.934;8.596;2023-04-15T07:25:29;10.25;;;8.43;;
62880;SDS011;48969;49.934;8.596;2023-04-15T07:27:54;11.32;;;8.55;;
62880;SDS011;48969;49.934;8.596;2023-04-15T07:30:20;12.18;;;9.45;;
62880;SDS011;48969;49.934;8.596;2023-04-15T07:32:45;12.75;;;9.05;;
62880;SDS011;48969;49.934;8.596;2023-04-15T07:35:10;11.23;;;8.35;;
62880;SDS011;48969;49.934;8.596;2023-04-15T07:37:36;13.45;;;9.80;;
62880;SDS011;48969;49.934;8.596;2023-04-15T07:40:01;10.35;;;9.35;;
62880;SDS011;48969;49.934;8.596;2023-04-15T07:42:28;11.93;;;10.48;;
62880;SDS011;48969;49.934;8.596;2023-04-15T07:44:53;5.72;;;2.63;;
62880;SDS011;48969;49.934;8.596;2023-04-15T07:47:19;12.15;;;10.93;;
62880;SDS011;48969;49.934;8.596;2023-04-15T07:49:44;11.55;;;10.45;;
62880;SDS011;48969;49.934;8.596;2023-04-15T07:52:09;11.88;;;10.23;;
62880;SDS011;48969;49.934;8.596;2023-04-15T07:54:35;11.20;;;10.10;;
62880;SDS011;48969;49.934;8.596;2023-04-15T07:57:00;12.00;;;10.88;;
62880;SDS011;48969;49.934;8.596;2023-04-15T07:59:25;11.95;;;9.82;;
62880;SDS011;48969;49.934;8.596;2023-04-15T08:01:53;11.32;;;10.15;;
62880;SDS011;48969;49.934;8.596;2023-04-15T08:04:19;11.55;;;10.30;;
62880;SDS011;48969;49.934;8.596;2023-04-15T08:06:44;11.23;;;10.13;;
62880;SDS011;48969;49.934;8.596;2023-04-15T08:09:09;13.85;;;10.13;;
62880;SDS011;48969;49.934;8.596;2023-04-15T08:11:35;11.05;;;9.88;;
62880;SDS011;48969;49.934;8.596;2023-04-15T08:14:00;12.98;;;10.32;;
62880;SDS011;48969;49.934;8.596;2023-04-15T08:16:25;13.35;;;11.07;;
62880;SDS011;48969;49.934;8.596;2023-04-15T08:18:54;11.68;;;9.70;;
62880;SDS011;48969;49.934;8.596;2023-04-15T08:21:19;10.63;;;9.60;;
62880;SDS011;48969;49.934;8.596;2023-04-15T08:23:45;12.43;;;9.73;;
62880;SDS011;48969;49.934;8.596;2023-04-15T08:26:10;11.20;;;9.65;;
62880;SDS011;48969;49.934;8.596;2023-04-15T08:28:37;11.80;;;10.48;;
62880;SDS011;48969;49.934;8.596;2023-04-15T08:31:02;11.40;;;9.68;;
62880;SDS011;48969;49.934;8.596;2023-04-15T08:33:27;10.65;;;9.55;;
62880;SDS011;48969;49.934;8.596;2023-04-15T08:35:52;9.88;;;8.43;;
62880;SDS011;48969;49.934;8.596;2023-04-15T08:38:18;12.82;;;9.43;;
62880;SDS011;48969;49.934;8.596;2023-04-15T08:40:43;9.75;;;8.75;;
62880;SDS011;48969;49.934;8.596;2023-04-15T08:43:10;10.45;;;8.57;;
62880;SDS011;48969;49.934;8.596;2023-04-15T08:45:37;9.13;;;8.18;;
62880;SDS011;48969;49.934;8.596;2023-04-15T08:48:02;9.25;;;7.78;;
62880;SDS011;48969;49.934;8.596;2023-04-15T08:50:28;10.73;;;7.72;;
62880;SDS011;48969;49.934;8.596;2023-04-15T08:52:55;8.50;;;7.45;;
62880;SDS011;48969;49.934;8.596;2023-04-15T08:55:22;8.25;;;7.28;;
62880;SDS011;48969;49.934;8.596;2023-04-15T08:57:48;9.02;;;7.43;;
62880;SDS011;48969;49.934;8.596;2023-04-15T09:00:14;8.20;;;7.10;;
62880;SDS011;48969;49.934;8.596;2023-04-15T09:02:40;8.38;;;7.15;;
62880;SDS011;48969;49.934;8.596;2023-04-15T09:05:05;8.73;;;7.13;;
62880;SDS011;48969;49.934;8.596;2023-04-15T09:07:34;7.93;;;6.85;;
62880;SDS011;48969;49.934;8.596;2023-04-15T09:10:01;11.50;;;6.68;;
62880;SDS011;48969;49.934;8.596;2023-04-15T09:12:27;9.57;;;6.05;;
62880;SDS011;48969;49.934;8.596;2023-04-15T09:14:52;8.02;;;5.88;;
62880;SDS011;48969;49.934;8.596;2023-04-15T09:17:18;8.45;;;6.32;;
62880;SDS011;48969;49.934;8.596;2023-04-15T09:19:44;6.38;;;5.68;;
62880;SDS011;48969;49.934;8.596;2023-04-15T09:22:10;6.68;;;5.43;;
62880;SDS011;48969;49.934;8.596;2023-04-15T09:24:36;7.32;;;5.57;;
62880;SDS011;48969;49.934;8.596;2023-04-15T09:27:02;7.00;;;4.78;;
62880;SDS011;48969;49.934;8.596;2023-04-15T09:29:28;5.00;;;3.85;;
62880;SDS011;48969;49.934;8.596;2023-04-15T09:31:53;8.52;;;4.53;;
62880;SDS011;48969;49.934;8.596;2023-04-15T09:34:19;5.68;;;4.40;;
62880;SDS011;48969;49.934;8.596;2023-04-15T09:39:13;6.80;;;4.20;;
62880;SDS011;48969;49.934;8.596;2023-04-15T09:41:38;5.55;;;4.40;;
62880;SDS011;48969;49.934;8.596;2023-04-15T09:44:05;8.32;;;4.65;;
62880;SDS011;48969;49.934;8.596;2023-04-15T09:46:43;7.38;;;4.80;;
62880;SDS011;48969;49.934;8.596;2023-04-15T09:49:09;6.18;;;4.68;;
62880;SDS011;48969;49.934;8.596;2023-04-15T09:51:34;5.93;;;4.40;;
62880;SDS011;48969;49.934;8.596;2023-04-15T09:54:00;5.80;;;4.18;;
62880;SDS011;48969;49.934;8.596;2023-04-15T09:56:31;4.88;;;4.07;;
62880;SDS011;48969;49.934;8.596;2023-04-15T09:58:56;5.30;;;4.00;;
62880;SDS011;48969;49.934;8.596;2023-04-15T10:01:21;6.43;;;4.55;;
62880;SDS011;48969;49.934;8.596;2023-04-15T10:03:46;5.20;;;4.43;;
62880;SDS011;48969;49.934;8.596;2023-04-15T10:06:12;5.30;;;4.50;;
62880;SDS011;48969;49.934;8.596;2023-04-15T10:08:39;7.07;;;4.75;;
62880;SDS011;48969;49.934;8.596;2023-04-15T10:11:05;5.32;;;3.95;;
62880;SDS011;48969;49.934;8.596;2023-04-15T10:13:31;6.32;;;4.10;;
62880;SDS011;48969;49.934;8.596;2023-04-15T10:16:09;5.03;;;3.42;;
62880;SDS011;48969;49.934;8.596;2023-04-15T10:18:37;3.85;;;3.05;;
62880;SDS011;48969;49.934;8.596;2023-04-15T10:21:02;6.18;;;3.20;;
62880;SDS011;48969;49.934;8.596;2023-04-15T10:23:28;5.07;;;3.85;;
62880;SDS011;48969;49.934;8.596;2023-04-15T10:25:54;5.25;;;3.80;;
62880;SDS011;48969;49.934;8.596;2023-04-15T10:28:20;5.38;;;3.97;;
62880;SDS011;48969;49.934;8.596;2023-04-15T10:30:47;4.38;;;3.78;;
62880;SDS011;48969;49.934;8.596;2023-04-15T10:33:12;4.53;;;3.83;;
62880;SDS011;48969;49.934;8.596;2023-04-15T10:35:38;4.95;;;3.15;;
62880;SDS011;48969;49.934;8.596;2023-04-15T10:38:29;4.22;;;2.83;;
62880;SDS011;48969;49.934;8.596;2023-04-15T10:40:48;3.92;;;3.13;;
62880;SDS011;48969;49.934;8.596;2023-04-15T10:43:23;3.78;;;3.20;;
62880;SDS011;48969;49.934;8.596;2023-04-15T10:45:49;7.53;;;3.47;;
62880;SDS011;48969;49.934;8.596;2023-04-15T10:48:14;5.32;;;2.75;;
62880;SDS011;48969;49.934;8.596;2023-04-15T10:50:40;4.47;;;2.80;;
62880;SDS011;48969;49.934;8.596;2023-04-15T10:53:05;5.03;;;2.78;;
62880;SDS011;48969;49.934;8.596;2023-04-15T10:55:34;5.03;;;2.97;;
62880;SDS011;48969;49.934;8.596;2023-04-15T10:58:00;4.60;;;3.20;;
62880;SDS011;48969;49.934;8.596;2023-04-15T11:00:27;4.55;;;2.80;;
62880;SDS011;48969;49.934;8.596;2023-04-15T11:05:18;3.90;;;2.70;;
62880;SDS011;48969;49.934;8.596;2023-04-15T11:12:37;3.45;;;2.35;;
62880;SDS011;48969;49.934;8.596;2023-04-15T11:17:47;3.28;;;2.67;;
62880;SDS011;48969;49.934;8.596;2023-04-15T11:20:15;3.92;;;2.80;;
62880;SDS011;48969;49.934;8.596;2023-04-15T11:22:52;5.85;;;2.80;;
62880;SDS011;48969;49.934;8.596;2023-04-15T11:25:21;3.50;;;2.58;;
62880;SDS011;48969;49.934;8.596;2023-04-15T11:27:46;3.28;;;2.10;;
62880;SDS011;48969;49.934;8.596;2023-04-15T11:30:18;2.42;;;2.22;;
62880;SDS011;48969;49.934;8.596;2023-04-15T11:32:45;3.67;;;2.53;;
62880;SDS011;48969;49.934;8.596;2023-04-15T11:35:10;3.33;;;2.58;;
62880;SDS011;48969;49.934;8.596;2023-04-15T11:37:35;2.90;;;1.92;;
62880;SDS011;48969;49.934;8.596;2023-04-15T11:40:01;4.10;;;2.47;;
62880;SDS011;48969;49.934;8.596;2023-04-15T11:42:27;3.20;;;2.22;;
62880;SDS011;48969;49.934;8.596;2023-04-15T11:45:05;3.47;;;2.10;;
62880;SDS011;48969;49.934;8.596;2023-04-15T11:47:30;4.80;;;2.50;;
62880;SDS011;48969;49.934;8.596;2023-04-15T11:49:55;3.38;;;2.10;;
62880;SDS011;48969;49.934;8.596;2023-04-15T11:52:20;2.90;;;1.67;;
62880;SDS011;48969;49.934;8.596;2023-04-15T11:54:46;2.10;;;1.48;;
62880;SDS011;48969;49.934;8.596;2023-04-15T11:57:12;1.40;;;1.30;;
62880;SDS011;48969;49.934;8.596;2023-04-15T11:59:41;2.97;;;1.33;;
62880;SDS011;48969;49.934;8.596;2023-04-15T12:02:12;1.60;;;1.50;;
62880;SDS011;48969;49.934;8.596;2023-04-15T12:04:38;2.42;;;1.55;;
62880;SDS011;48969;49.934;8.596;2023-04-15T12:07:03;2.63;;;1.90;;
62880;SDS011;48969;49.934;8.596;2023-04-15T12:09:29;2.58;;;1.77;;
62880;SDS011;48969;49.934;8.596;2023-04-15T12:11:56;2.38;;;1.77;;
62880;SDS011;48969;49.934;8.596;2023-04-15T12:14:25;2.83;;;2.20;;
62880;SDS011;48969;49.934;8.596;2023-04-15T12:16:53;2.60;;;1.80;;
62880;SDS011;48969;49.934;8.596;2023-04-15T12:19:25;2.47;;;1.88;;
62880;SDS011;48969;49.934;8.596;2023-04-15T12:21:52;2.63;;;1.88;;
62880;SDS011;48969;49.934;8.596;2023-04-15T12:24:21;3.30;;;2.08;;
62880;SDS011;48969;49.934;8.596;2023-04-15T12:26:50;2.97;;;2.30;;
62880;SDS011;48969;49.934;8.596;2023-04-15T12:29:17;4.20;;;3.47;;
62880;SDS011;48969;49.934;8.596;2023-04-15T12:31:46;4.70;;;2.95;;
62880;SDS011;48969;49.934;8.596;2023-04-15T12:34:13;5.07;;;4.00;;
62880;SDS011;48969;49.934;8.596;2023-04-15T12:36:38;4.68;;;4.18;;
62880;SDS011;48969;49.934;8.596;2023-04-15T12:39:03;5.47;;;4.70;;
62880;SDS011;48969;49.934;8.596;2023-04-15T12:41:29;5.65;;;5.05;;
62880;SDS011;48969;49.934;8.596;2023-04-15T12:43:54;6.18;;;4.50;;
62880;SDS011;48969;49.934;8.596;2023-04-15T12:46:19;4.57;;;3.97;;
62880;SDS011;48969;49.934;8.596;2023-04-15T12:48:45;4.97;;;4.20;;
62880;SDS011;48969;49.934;8.596;2023-04-15T12:51:10;5.90;;;4.93;;
62880;SDS011;48969;49.934;8.596;2023-04-15T12:53:35;5.38;;;4.75;;
62880;SDS011;48969;49.934;8.596;2023-04-15T12:56:01;7.00;;;4.28;;
62880;SDS011;48969;49.934;8.596;2023-04-15T12:58:26;6.40;;;5.20;;
62880;SDS011;48969;49.934;8.596;2023-04-15T13:00:51;6.38;;;4.13;;
62880;SDS011;48969;49.934;8.596;2023-04-15T13:03:16;6.27;;;4.47;;
62880;SDS011;48969;49.934;8.596;2023-04-15T13:05:42;4.65;;;3.97;;
62880;SDS011;48969;49.934;8.596;2023-04-15T13:08:07;4.53;;;4.13;;
62880;SDS011;48969;49.934;8.596;2023-04-15T13:10:32;5.05;;;4.32;;
62880;SDS011;48969;49.934;8.596;2023-04-15T13:13:00;4.20;;;3.65;;
62880;SDS011;48969;49.934;8.596;2023-04-15T13:15:25;4.10;;;3.60;;
62880;SDS011;48969;49.934;8.596;2023-04-15T13:17:51;4.75;;;3.72;;
62880;SDS011;48969;49.934;8.596;2023-04-15T13:20:16;5.47;;;3.45;;
62880;SDS011;48969;49.934;8.596;2023-04-15T13:22:41;3.60;;;3.28;;
62880;SDS011;48969;49.934;8.596;2023-04-15T13:25:06;3.13;;;2.75;;
62880;SDS011;48969;49.934;8.596;2023-04-15T13:27:32;3.00;;;2.65;;
62880;SDS011;48969;49.934;8.596;2023-04-15T13:29:58;3.65;;;2.80;;
62880;SDS011;48969;49.934;8.596;2023-04-15T13:32:23;2.40;;;2.17;;
62880;SDS011;48969;49.934;8.596;2023-04-15T13:34:48;2.97;;;2.30;;
62880;SDS011;48969;49.934;8.596;2023-04-15T13:37:14;2.88;;;2.60;;
62880;SDS011;48969;49.934;8.596;2023-04-15T13:39:39;2.38;;;2.08;;
62880;SDS011;48969;49.934;8.596;2023-04-15T13:42:05;2.95;;;2.65;;
62880;SDS011;48969;49.934;8.596;2023-04-15T13:44:30;3.50;;;2.25;;
62880;SDS011;48969;49.934;8.596;2023-04-15T13:46:55;3.00;;;2.70;;
62880;SDS011;48969;49.934;8.596;2023-04-15T13:49:20;3.63;;;2.42;;
62880;SDS011;48969;49.934;8.596;2023-04-15T13:51:46;2.92;;;2.60;;
62880;SDS011;48969;49.934;8.596;2023-04-15T13:54:11;2.50;;;2.30;;
62880;SDS011;48969;49.934;8.596;2023-04-15T13:56:36;2.88;;;2.30;;
62880;SDS011;48969;49.934;8.596;2023-04-15T13:59:01;3.67;;;2.65;;
62880;SDS011;48969;49.934;8.596;2023-04-15T14:01:27;2.60;;;2.40;;
62880;SDS011;48969;49.934;8.596;2023-04-15T14:03:52;1.35;;;0.95;;
62880;SDS011;48969;49.934;8.596;2023-04-15T14:06:18;2.28;;;2.10;;
62880;SDS011;48969;49.934;8.596;2023-04-15T14:08:43;2.38;;;2.17;;
62880;SDS011;48969;49.934;8.596;2023-04-15T14:11:08;2.10;;;1.90;;
62880;SDS011;48969;49.934;8.596;2023-04-15T14:13:33;1.75;;;1.65;;
62880;SDS011;48969;49.934;8.596;2023-04-15T14:15:58;2.13;;;1.75;;
62880;SDS011;48969;49.934;8.596;2023-04-15T14:18:24;1.55;;;1.45;;
62880;SDS011;48969;49.934;8.596;2023-04-15T14:20:49;1.45;;;1.35;;
62880;SDS011;48969;49.934;8.596;2023-04-15T14:23:14;1.75;;;1.58;;
62880;SDS011;48969;49.934;8.596;2023-04-15T14:25:40;2.05;;;1.63;;
62880;SDS011;48969;49.934;8.596;2023-04-15T14:28:05;1.80;;;1.27;;
62880;SDS011;48969;49.934;8.596;2023-04-15T14:30:30;1.58;;;1.45;;
62880;SDS011;48969;49.934;8.596;2023-04-15T14:32:55;1.58;;;1.35;;
62880;SDS011;48969;49.934;8.596;2023-04-15T14:35:21;1.38;;;1.27;;
62880;SDS011;48969;49.934;8.596;2023-04-15T14:37:46;1.70;;;1.30;;
62880;SDS011;48969;49.934;8.596;2023-04-15T14:40:11;1.67;;;1.42;;
62880;SDS011;48969;49.934;8.596;2023-04-15T14:42:37;1.40;;;1.30;;
62880;SDS011;48969;49.934;8.596;2023-04-15T14:45:02;1.48;;;1.38;;
62880;SDS011;48969;49.934;8.596;2023-04-15T14:47:27;1.60;;;1.50;;
62880;SDS011;48969;49.934;8.596;2023-04-15T14:49:52;1.50;;;1.40;;